createdAt,value
2017-09-24T00:00:09.262Z,1.22
2017-09-24T00:01:09.245Z,1.14
2017-09-24T00:02:09.229Z,1.15
2017-09-24T00:03:09.212Z,1.14
2017-09-24T00:04:09.196Z,1.29
2017-09-24T00:05:09.181Z,1.23
2017-09-24T00:06:09.167Z,1.11
2017-09-24T00:07:09.146Z,1.06
2017-09-24T00:08:09.128Z,1.09
2017-09-24T00:09:09.111Z,1.09
2017-09-24T00:10:09.096Z,1.22
2017-09-24T00:11:09.081Z,1.23
2017-09-24T00:12:09.067Z,1.30
2017-09-24T00:13:09.048Z,1.30
2017-09-24T00:14:09.030Z,1.26
2017-09-24T00:15:09.014Z,1.24
2017-09-24T00:16:08.997Z,1.32
2017-09-24T00:17:08.980Z,1.27
2017-09-24T00:18:08.964Z,1.26
2017-09-24T00:19:08.949Z,1.23
2017-09-24T00:20:08.932Z,1.27
2017-09-24T00:21:08.915Z,1.14
2017-09-24T00:22:08.898Z,1.12
2017-09-24T00:23:08.882Z,1.20
2017-09-24T00:24:08.864Z,1.24
2017-09-24T00:25:08.849Z,1.23
2017-09-24T00:26:08.838Z,1.22
2017-09-24T00:27:08.816Z,1.18
2017-09-24T00:28:08.801Z,1.22
2017-09-24T00:29:08.783Z,1.12
2017-09-24T00:30:08.767Z,1.06
2017-09-24T00:31:08.750Z,1.11
2017-09-24T00:32:08.733Z,1.12
2017-09-24T00:33:08.716Z,1.15
2017-09-24T00:34:08.700Z,1.15
2017-09-24T00:35:08.684Z,1.06
2017-09-24T00:36:08.667Z,1.08
2017-09-24T00:37:08.650Z,1.12
2017-09-24T00:38:08.645Z,1.12
2017-09-24T00:39:08.617Z,1.15
2017-09-24T00:40:08.601Z,1.06
2017-09-24T00:41:08.584Z,1.18
2017-09-24T00:42:08.568Z,1.11
2017-09-24T00:43:08.557Z,1.20
2017-09-24T00:44:08.535Z,1.12
2017-09-24T00:45:08.518Z,1.09
2017-09-24T00:46:08.502Z,1.22
2017-09-24T00:47:08.485Z,1.15
2017-09-24T00:48:08.469Z,1.22
2017-09-24T00:49:08.453Z,1.24
2017-09-24T00:50:08.437Z,1.29
2017-09-24T00:51:08.420Z,1.16
2017-09-24T00:52:08.408Z,1.14
2017-09-24T00:53:08.385Z,1.22
2017-09-24T00:54:08.369Z,1.16
2017-09-24T00:55:08.354Z,1.27
2017-09-24T00:56:08.337Z,1.20
2017-09-24T00:57:08.321Z,1.22
2017-09-24T00:58:08.304Z,1.30
2017-09-24T00:59:08.287Z,1.36
2017-09-24T01:00:08.270Z,1.26
2017-09-24T01:01:08.255Z,1.23
2017-09-24T01:02:08.239Z,1.20
2017-09-24T01:03:08.223Z,1.36
2017-09-24T01:04:08.208Z,1.34
2017-09-24T01:05:08.189Z,1.24
2017-09-24T01:06:08.173Z,1.18
2017-09-24T01:07:08.158Z,1.22
2017-09-24T01:08:08.140Z,1.16
2017-09-24T01:09:08.124Z,1.16
2017-09-24T01:10:08.107Z,1.05
2017-09-24T01:11:08.091Z,1.06
2017-09-24T01:12:08.074Z,1.06
2017-09-24T01:13:08.057Z,1.06
2017-09-24T01:14:08.041Z,1.08
2017-09-24T01:15:08.027Z,1.12
2017-09-24T01:16:08.009Z,1.23
2017-09-24T01:17:07.993Z,1.08
2017-09-24T01:18:07.976Z,0.98
2017-09-24T01:19:07.959Z,0.94
2017-09-24T01:20:07.943Z,0.83
2017-09-24T01:21:07.926Z,0.93
2017-09-24T01:22:07.909Z,0.88
2017-09-24T01:23:07.894Z,0.83
2017-09-24T01:24:07.876Z,0.83
2017-09-24T01:25:07.860Z,0.86
2017-09-24T01:26:07.843Z,0.86
2017-09-24T01:27:07.828Z,1.00
2017-09-24T01:28:07.810Z,0.83
2017-09-24T01:29:07.793Z,0.83
2017-09-24T01:30:07.777Z,0.83
2017-09-24T01:31:07.761Z,0.83
2017-09-24T01:32:07.744Z,0.90
2017-09-24T01:33:07.728Z,0.93
2017-09-24T01:34:07.711Z,0.90
2017-09-24T01:35:07.694Z,0.86
2017-09-24T01:36:07.678Z,0.83
2017-09-24T01:37:07.662Z,0.66
2017-09-24T01:38:07.649Z,0.73
2017-09-24T01:39:07.630Z,0.70
2017-09-24T01:40:07.613Z,0.72
2017-09-24T01:41:07.596Z,0.75
2017-09-24T01:42:07.579Z,0.57
2017-09-24T01:43:07.563Z,0.41
2017-09-24T01:44:07.546Z,0.29
2017-09-24T01:45:07.536Z,0.24
2017-09-24T01:46:07.513Z,0.17
2017-09-24T01:47:07.497Z,0.08
2017-09-24T01:48:07.480Z,0.10
2017-09-24T01:49:07.464Z,0.07
2017-09-24T01:51:07.431Z,0.08
2017-09-24T01:52:07.414Z,0.17
2017-09-24T01:53:07.398Z,0.20
2017-09-24T01:54:07.381Z,0.31
2017-09-24T01:55:07.365Z,0.26
2017-09-24T01:56:07.348Z,0.32
2017-09-24T01:57:07.331Z,0.24
2017-09-24T01:58:07.313Z,0.23
2017-09-24T01:59:07.297Z,0.32
2017-09-24T02:00:07.280Z,0.32
2017-09-24T02:01:07.274Z,0.44
2017-09-24T02:02:07.248Z,0.46
2017-09-24T02:03:07.231Z,0.23
2017-09-24T02:04:07.214Z,0.32
2017-09-24T02:05:07.198Z,0.23
2017-09-24T02:06:07.181Z,0.18
2017-09-24T02:07:07.165Z,0.21
2017-09-24T02:08:07.148Z,0.23
2017-09-24T02:09:07.131Z,0.24
2017-09-24T02:10:07.116Z,0.20
2017-09-24T02:11:07.099Z,0.08
2017-09-24T02:12:07.082Z,0.10
2017-09-24T02:13:07.064Z,0.04
2017-09-24T02:14:07.048Z,0.03
2017-09-24T02:15:07.031Z,0.11
2017-09-24T02:16:07.013Z,-0.01
2017-09-24T02:17:06.997Z,-0.05
2017-09-24T02:18:06.979Z,-0.10
2017-09-24T02:19:06.963Z,-0.10
2017-09-24T02:20:06.945Z,-0.04
2017-09-24T02:21:06.931Z,0.11
2017-09-24T02:22:06.910Z,0.11
2017-09-24T02:23:06.893Z,0.04
2017-09-24T02:24:06.879Z,0.13
2017-09-24T02:25:06.861Z,0.08
2017-09-24T02:26:06.841Z,0.08
2017-09-24T02:27:06.824Z,0.03
2017-09-24T02:28:06.813Z,0.03
2017-09-24T02:29:06.791Z,0.11
2017-09-24T02:30:06.774Z,0.11
2017-09-24T02:31:06.758Z,0.10
2017-09-24T02:32:06.738Z,0.04
2017-09-24T02:33:06.722Z,0.10
2017-09-24T02:34:06.705Z,0.18
2017-09-24T02:35:06.688Z,0.21
2017-09-24T02:36:06.670Z,0.32
2017-09-24T02:37:06.655Z,0.20
2017-09-24T02:38:06.635Z,0.17
2017-09-24T02:39:06.619Z,0.26
2017-09-24T02:40:06.601Z,0.21
2017-09-24T02:41:06.584Z,0.21
2017-09-24T02:42:06.568Z,0.21
2017-09-24T02:43:06.552Z,0.21
2017-09-24T02:44:06.533Z,0.28
2017-09-24T02:45:06.516Z,0.13
2017-09-24T02:46:06.500Z,0.23
2017-09-24T02:47:06.485Z,0.15
2017-09-24T02:48:06.465Z,0.24
2017-09-24T02:49:06.447Z,0.35
2017-09-24T02:50:06.430Z,0.36
2017-09-24T02:51:06.415Z,0.26
2017-09-24T02:52:06.397Z,0.41
2017-09-24T02:53:06.385Z,0.41
2017-09-24T02:54:06.363Z,0.39
2017-09-24T02:55:06.346Z,0.47
2017-09-24T02:56:06.328Z,0.51
2017-09-24T02:57:06.312Z,0.39
2017-09-24T02:58:06.296Z,0.58
2017-09-24T02:59:06.283Z,0.46
2017-09-24T03:00:06.261Z,0.39
2017-09-24T03:01:06.246Z,0.49
2017-09-24T03:02:06.229Z,0.49
2017-09-24T03:03:06.213Z,0.49
2017-09-24T03:04:06.195Z,0.50
2017-09-24T03:05:06.180Z,0.46
2017-09-24T03:06:06.169Z,0.49
2017-09-24T03:07:06.147Z,0.44
2017-09-24T03:08:06.130Z,0.42
2017-09-24T03:09:06.113Z,0.36
2017-09-24T03:10:06.098Z,0.47
2017-09-24T03:11:06.081Z,0.53
2017-09-24T03:12:06.065Z,0.55
2017-09-24T03:13:06.049Z,0.50
2017-09-24T03:14:06.034Z,0.66
2017-09-24T03:15:06.017Z,0.76
2017-09-24T03:16:06.000Z,0.87
2017-09-24T03:17:05.984Z,0.84
2017-09-24T03:18:05.968Z,0.87
2017-09-24T03:19:05.953Z,0.91
2017-09-24T03:20:05.940Z,0.97
2017-09-24T03:21:05.923Z,0.87
2017-09-24T03:22:05.906Z,0.84
2017-09-24T03:23:05.890Z,0.84
2017-09-24T03:24:05.873Z,0.86
2017-09-24T03:25:05.857Z,0.83
2017-09-24T03:26:05.847Z,0.80
2017-09-24T03:27:05.826Z,0.84
2017-09-24T03:28:05.810Z,0.97
2017-09-24T03:29:05.794Z,0.88
2017-09-24T03:30:05.779Z,0.88
2017-09-24T03:31:05.769Z,1.04
2017-09-24T03:32:05.744Z,0.97
2017-09-24T03:33:05.729Z,0.86
2017-09-24T03:34:05.713Z,0.86
2017-09-24T03:35:05.696Z,0.84
2017-09-24T03:36:05.679Z,0.83
2017-09-24T03:37:05.664Z,0.51
2017-09-24T03:38:05.648Z,0.60
2017-09-24T03:39:05.632Z,0.55
2017-09-24T03:40:05.615Z,0.73
2017-09-24T03:41:05.600Z,0.58
2017-09-24T03:42:05.583Z,0.41
2017-09-24T03:43:05.567Z,0.49
2017-09-24T03:44:05.550Z,0.53
2017-09-24T03:45:05.534Z,0.65
2017-09-24T03:46:05.518Z,0.68
2017-09-24T03:47:05.502Z,0.36
2017-09-24T03:48:05.484Z,0.33
2017-09-24T03:49:05.470Z,0.39
2017-09-24T03:50:05.453Z,0.44
2017-09-24T03:51:05.438Z,0.55
2017-09-24T03:52:05.421Z,0.66
2017-09-24T03:53:05.405Z,0.57
2017-09-24T03:54:05.388Z,0.42
2017-09-24T03:55:05.372Z,0.62
2017-09-24T03:56:05.356Z,0.75
2017-09-24T03:57:05.338Z,0.73
2017-09-24T03:58:05.327Z,0.60
2017-09-24T03:59:05.307Z,0.39
2017-09-24T04:00:05.290Z,0.53
2017-09-24T04:01:05.274Z,0.72
2017-09-24T04:02:05.258Z,0.75
2017-09-24T04:03:05.243Z,0.65
2017-09-24T04:04:05.226Z,0.57
2017-09-24T04:05:05.209Z,0.69
2017-09-24T04:06:05.198Z,0.78
2017-09-24T04:07:05.178Z,0.90
2017-09-24T04:08:05.160Z,0.97
2017-09-24T04:09:05.146Z,0.96
2017-09-24T04:10:05.132Z,1.09
2017-09-24T04:11:05.115Z,1.16
2017-09-24T04:12:05.098Z,1.11
2017-09-24T04:13:05.083Z,1.15
2017-09-24T04:14:05.067Z,1.16
2017-09-24T04:15:05.051Z,1.34
2017-09-24T04:16:05.035Z,1.27
2017-09-24T04:17:05.022Z,1.14
2017-09-24T04:18:05.004Z,1.20
2017-09-24T04:19:04.987Z,1.26
2017-09-24T04:20:04.971Z,1.20
2017-09-24T04:21:04.957Z,1.24
2017-09-24T04:22:04.941Z,1.14
2017-09-24T04:23:04.925Z,1.22
2017-09-24T04:24:04.908Z,1.23
2017-09-24T04:25:04.892Z,1.36
2017-09-24T04:26:04.878Z,1.37
2017-09-24T04:27:04.861Z,1.48
2017-09-24T04:28:04.844Z,1.51
2017-09-24T04:29:04.828Z,1.45
2017-09-24T04:30:04.812Z,1.42
2017-09-24T04:31:04.798Z,1.34
2017-09-24T04:32:04.781Z,1.44
2017-09-24T04:33:04.766Z,1.42
2017-09-24T04:34:04.750Z,1.54
2017-09-24T04:35:04.734Z,1.50
2017-09-24T04:36:04.718Z,1.45
2017-09-24T04:37:04.702Z,1.32
2017-09-24T04:38:04.687Z,1.30
2017-09-24T04:39:04.672Z,1.29
2017-09-24T04:40:04.655Z,1.32
2017-09-24T04:41:04.639Z,1.48
2017-09-24T04:42:04.623Z,1.47
2017-09-24T04:43:04.608Z,1.30
2017-09-24T04:44:04.591Z,1.36
2017-09-24T04:45:04.575Z,1.45
2017-09-24T04:46:04.564Z,1.51
2017-09-24T04:47:04.544Z,1.52
2017-09-24T04:48:04.527Z,1.52
2017-09-24T04:49:04.512Z,1.51
2017-09-24T04:50:04.496Z,1.34
2017-09-24T04:51:04.480Z,1.33
2017-09-24T04:52:04.463Z,1.37
2017-09-24T04:53:04.448Z,1.23
2017-09-24T04:54:04.433Z,1.26
2017-09-24T04:55:04.421Z,0.97
2017-09-24T04:56:04.404Z,0.83
2017-09-24T04:57:04.390Z,0.57
2017-09-24T04:58:04.369Z,0.50
2017-09-24T04:59:04.352Z,0.60
2017-09-24T05:00:04.335Z,0.68
2017-09-24T05:01:04.319Z,0.73
2017-09-24T05:02:04.304Z,0.70
2017-09-24T05:03:04.296Z,0.66
2017-09-24T05:04:04.270Z,0.69
2017-09-24T05:05:04.253Z,0.60
2017-09-24T05:06:04.238Z,0.60
2017-09-24T05:07:04.222Z,0.57
2017-09-24T05:08:04.204Z,0.39
2017-09-24T05:09:04.187Z,0.46
2017-09-24T05:10:04.171Z,0.44
2017-09-24T05:11:04.155Z,0.50
2017-09-24T05:12:04.138Z,0.49
2017-09-24T05:13:04.121Z,0.32
2017-09-24T05:14:04.106Z,0.38
2017-09-24T05:15:04.090Z,0.33
2017-09-24T05:16:04.071Z,0.21
2017-09-24T05:17:04.059Z,0.31
2017-09-24T05:18:04.039Z,0.33
2017-09-24T05:19:04.022Z,0.32
2017-09-24T05:20:04.005Z,0.04
2017-09-24T05:21:03.988Z,-0.05
2017-09-24T05:22:03.972Z,0.20
2017-09-24T05:23:03.957Z,0.23
2017-09-24T05:24:03.940Z,0.08
2017-09-24T05:25:03.923Z,0.10
2017-09-24T05:26:03.907Z,0.00
2017-09-24T05:27:03.890Z,-0.01
2017-09-24T05:28:03.873Z,0.04
2017-09-24T05:29:03.856Z,0.18
2017-09-24T05:30:03.841Z,0.24
2017-09-24T05:31:03.825Z,0.29
2017-09-24T05:32:03.807Z,0.38
2017-09-24T05:33:03.795Z,0.42
2017-09-24T05:34:03.775Z,0.49
2017-09-24T05:35:03.760Z,0.51
2017-09-24T05:36:03.742Z,0.49
2017-09-24T05:37:03.725Z,0.47
2017-09-24T05:38:03.709Z,0.65
2017-09-24T05:39:03.693Z,0.66
2017-09-24T05:40:03.676Z,0.60
2017-09-24T05:41:03.660Z,0.55
2017-09-24T05:42:03.644Z,0.50
2017-09-24T05:43:03.628Z,0.51
2017-09-24T05:44:03.611Z,0.44
2017-09-24T05:45:03.594Z,0.39
2017-09-24T05:46:03.578Z,0.39
2017-09-24T05:47:03.563Z,0.39
2017-09-24T05:48:03.545Z,0.55
2017-09-24T05:49:03.528Z,0.53
2017-09-24T05:50:03.513Z,0.80
2017-09-24T05:51:03.499Z,0.84
2017-09-24T05:52:03.478Z,0.90
2017-09-24T05:53:03.463Z,0.79
2017-09-24T05:54:03.446Z,0.78
2017-09-24T05:55:03.429Z,0.62
2017-09-24T05:56:03.412Z,0.84
2017-09-24T05:57:03.398Z,1.00
2017-09-24T05:58:03.381Z,1.08
2017-09-24T05:59:03.370Z,1.05
2017-09-24T06:00:03.379Z,1.26
2017-09-24T06:01:03.340Z,1.24
2017-09-24T06:02:03.318Z,1.00
2017-09-24T06:03:03.301Z,1.14
2017-09-24T06:04:03.285Z,1.16
2017-09-24T06:05:03.270Z,1.22
2017-09-24T06:06:03.253Z,1.05
2017-09-24T06:07:03.241Z,1.14
2017-09-24T06:08:03.222Z,0.97
2017-09-24T06:09:03.205Z,0.96
2017-09-24T06:10:03.188Z,0.84
2017-09-24T06:11:03.173Z,0.72
2017-09-24T06:12:03.157Z,0.51
2017-09-24T06:13:03.141Z,0.51
2017-09-24T06:14:03.125Z,0.55
2017-09-24T06:15:03.109Z,0.58
2017-09-24T06:16:03.090Z,0.39
2017-09-24T06:17:03.076Z,0.44
2017-09-24T06:18:03.059Z,0.49
2017-09-24T06:19:03.048Z,0.75
2017-09-24T06:20:03.027Z,0.72
2017-09-24T06:21:03.011Z,0.76
2017-09-24T06:22:02.994Z,0.87
2017-09-24T06:23:03.007Z,0.96
2017-09-24T06:24:02.963Z,1.12
2017-09-24T06:25:02.946Z,1.15
2017-09-24T06:26:02.931Z,1.26
2017-09-24T06:27:02.914Z,1.50
2017-09-24T06:28:02.898Z,1.24
2017-09-24T06:29:02.882Z,1.18
2017-09-24T06:30:02.872Z,1.18
2017-09-24T06:31:02.851Z,1.30
2017-09-24T06:32:02.834Z,1.42
2017-09-24T06:33:02.819Z,1.50
2017-09-24T06:34:02.805Z,1.50
2017-09-24T06:35:02.789Z,1.50
2017-09-24T06:36:02.773Z,1.50
2017-09-24T06:37:02.760Z,1.18
2017-09-24T06:38:02.742Z,0.98
2017-09-24T06:39:02.728Z,0.75
2017-09-24T06:40:02.712Z,0.83
2017-09-24T06:41:02.696Z,1.00
2017-09-24T06:42:02.681Z,1.08
2017-09-24T06:43:02.665Z,1.29
2017-09-24T06:44:02.649Z,1.50
2017-09-24T06:45:02.633Z,1.50
2017-09-24T06:46:02.617Z,1.65
2017-09-24T06:47:02.603Z,1.60
2017-09-24T06:48:02.586Z,1.55
2017-09-24T06:49:02.574Z,1.60
2017-09-24T06:50:02.556Z,1.69
2017-09-24T06:51:02.540Z,1.72
2017-09-24T06:52:02.531Z,1.90
2017-09-24T06:53:02.509Z,1.73
2017-09-24T06:54:02.494Z,1.68
2017-09-24T06:55:02.478Z,1.60
2017-09-24T06:56:02.461Z,1.73
2017-09-24T06:57:02.446Z,1.91
2017-09-24T06:58:02.451Z,2.12
2017-09-24T06:59:02.415Z,2.23
2017-09-24T07:00:02.400Z,2.36
2017-09-24T07:01:02.384Z,2.43
2017-09-24T07:02:02.369Z,2.69
2017-09-24T07:03:02.355Z,2.89
2017-09-24T07:04:02.338Z,3.05
2017-09-24T07:05:02.324Z,3.23
2017-09-24T07:06:02.307Z,3.40
2017-09-24T07:07:02.293Z,3.54
2017-09-24T07:08:02.279Z,3.61
2017-09-24T07:09:02.291Z,3.86
2017-09-24T07:10:02.250Z,3.87
2017-09-24T07:11:02.239Z,3.80
2017-09-24T07:12:02.219Z,3.73
2017-09-24T07:13:02.207Z,3.66
2017-09-24T07:14:02.192Z,3.51
2017-09-24T07:15:02.178Z,3.24
2017-09-24T07:16:02.162Z,3.13
2017-09-24T07:17:02.149Z,3.14
2017-09-24T07:18:02.134Z,3.18
2017-09-24T07:19:02.121Z,3.06
2017-09-24T07:20:02.105Z,3.03
2017-09-24T07:21:02.091Z,2.95
2017-09-24T07:22:02.077Z,2.82
2017-09-24T07:23:02.062Z,2.95
2017-09-24T07:24:02.047Z,2.97
2017-09-24T07:25:02.033Z,3.20
2017-09-24T07:26:02.021Z,3.23
2017-09-24T07:27:02.004Z,3.47
2017-09-24T07:28:01.988Z,3.61
2017-09-24T07:29:01.985Z,3.70
2017-09-24T07:30:01.961Z,3.80
2017-09-24T07:31:01.947Z,3.72
2017-09-24T07:32:01.932Z,3.65
2017-09-24T07:33:01.920Z,3.58
2017-09-24T07:34:01.904Z,3.54
2017-09-24T07:35:01.891Z,3.65
2017-09-24T07:36:01.875Z,3.73
2017-09-24T07:37:01.862Z,3.93
2017-09-24T07:38:01.848Z,4.18
2017-09-24T07:39:01.840Z,4.23
2017-09-24T07:40:01.820Z,4.48
2017-09-24T07:41:01.806Z,4.44
2017-09-24T07:42:01.793Z,4.54
2017-09-24T07:43:01.779Z,4.75
2017-09-24T07:44:01.764Z,4.88
2017-09-24T07:45:01.755Z,4.97
2017-09-24T07:46:01.738Z,4.97
2017-09-24T07:47:01.724Z,4.99
2017-09-24T07:48:01.711Z,5.07
2017-09-24T07:49:01.697Z,5.27
2017-09-24T07:50:01.689Z,5.20
2017-09-24T07:51:01.671Z,5.07
2017-09-24T07:52:01.656Z,4.65
2017-09-24T07:53:01.644Z,4.50
2017-09-24T07:54:01.632Z,4.84
2017-09-24T07:55:01.618Z,4.92
2017-09-24T07:56:01.604Z,4.70
2017-09-24T07:57:01.592Z,4.23
2017-09-24T07:58:01.578Z,4.00
2017-09-24T07:59:01.567Z,4.09
2017-09-24T08:00:01.558Z,3.90
2017-09-24T08:01:01.540Z,3.40
2017-09-24T08:02:01.526Z,3.51
2017-09-24T08:03:01.515Z,3.66
2017-09-24T08:04:01.501Z,3.79
2017-09-24T08:05:01.488Z,4.06
2017-09-24T08:06:01.475Z,4.20
2017-09-24T08:07:01.466Z,4.29
2017-09-24T08:08:01.449Z,4.48
2017-09-24T08:09:01.437Z,4.42
2017-09-24T08:10:01.424Z,4.37
2017-09-24T08:11:01.411Z,4.32
2017-09-24T08:12:01.397Z,4.41
2017-09-24T08:13:01.384Z,4.42
2017-09-24T08:14:01.370Z,4.51
2017-09-24T08:15:01.364Z,4.54
2017-09-24T08:16:01.343Z,4.60
2017-09-24T08:17:01.332Z,4.45
2017-09-24T08:18:01.318Z,4.26
2017-09-24T08:19:01.304Z,3.91
2017-09-24T08:20:01.290Z,3.72
2017-09-24T08:21:01.277Z,3.68
2017-09-24T08:22:01.263Z,3.61
2017-09-24T08:23:01.251Z,3.72
2017-09-24T08:24:01.237Z,3.83
2017-09-24T08:25:01.223Z,3.86
2017-09-24T08:26:01.209Z,3.98
2017-09-24T08:27:01.196Z,4.22
2017-09-24T08:28:01.182Z,4.42
2017-09-24T08:29:01.169Z,4.41
2017-09-24T08:30:01.156Z,4.29
2017-09-24T08:31:01.142Z,4.30
2017-09-24T08:32:01.130Z,4.47
2017-09-24T08:33:01.114Z,4.44
2017-09-24T08:34:01.100Z,4.66
2017-09-24T08:35:01.091Z,4.72
2017-09-24T08:36:01.073Z,4.45
2017-09-24T08:37:01.060Z,3.84
2017-09-24T08:38:01.049Z,3.91
2017-09-24T08:39:01.033Z,4.09
2017-09-24T08:40:01.023Z,4.36
2017-09-24T08:41:01.004Z,4.48
2017-09-24T08:42:00.990Z,4.60
2017-09-24T08:43:00.977Z,4.41
2017-09-24T08:44:00.965Z,4.32
2017-09-24T08:45:00.951Z,4.18
2017-09-24T08:46:00.936Z,4.26
2017-09-24T08:47:00.923Z,4.41
2017-09-24T08:48:00.909Z,4.52
2017-09-24T08:49:00.895Z,4.51
2017-09-24T08:50:00.882Z,4.60
2017-09-24T08:51:00.868Z,4.70
2017-09-24T08:52:00.854Z,4.84
2017-09-24T08:53:00.841Z,5.12
2017-09-24T08:54:00.827Z,5.24
2017-09-24T08:55:00.815Z,5.28
2017-09-24T08:56:00.801Z,5.61
2017-09-24T08:57:00.791Z,5.71
2017-09-24T08:58:00.774Z,5.91
2017-09-24T08:59:00.761Z,5.85
2017-09-24T09:00:00.748Z,5.99
2017-09-24T09:01:00.735Z,6.08
2017-09-24T09:02:00.721Z,6.17
2017-09-24T09:03:00.709Z,6.30
2017-09-24T09:04:00.695Z,6.34
2017-09-24T09:05:00.683Z,6.31
2017-09-24T09:06:00.670Z,6.06
2017-09-24T09:07:00.657Z,5.82
2017-09-24T09:08:00.644Z,5.83
2017-09-24T09:09:00.632Z,5.85
2017-09-24T09:10:00.618Z,5.86
2017-09-24T09:11:00.606Z,5.75
2017-09-24T09:12:00.595Z,5.68
2017-09-24T09:13:00.581Z,5.43
2017-09-24T09:14:00.567Z,5.45
2017-09-24T09:15:00.555Z,5.60
2017-09-24T09:16:00.541Z,5.60
2017-09-24T09:17:00.529Z,5.89
2017-09-24T09:18:00.516Z,6.11
2017-09-24T09:19:00.502Z,6.31
2017-09-24T09:20:00.490Z,6.52
2017-09-24T09:21:00.477Z,7.03
2017-09-24T09:22:00.464Z,7.32
2017-09-24T09:23:00.452Z,6.81
2017-09-24T09:24:00.443Z,6.41
2017-09-24T09:25:00.428Z,6.34
2017-09-24T09:26:00.415Z,6.21
2017-09-24T09:27:00.408Z,5.85
2017-09-24T09:28:00.389Z,6.04
2017-09-24T09:29:00.377Z,5.86
2017-09-24T09:30:00.364Z,5.30
2017-09-24T09:31:00.352Z,5.24
2017-09-24T09:32:00.341Z,5.04
2017-09-24T09:33:00.325Z,5.07
2017-09-24T09:34:00.313Z,5.06
2017-09-24T09:35:00.299Z,5.10
2017-09-24T09:36:00.286Z,5.12
2017-09-24T09:37:00.273Z,5.33
2017-09-24T09:38:00.260Z,5.45
2017-09-24T09:39:00.248Z,5.31
2017-09-24T09:40:00.233Z,5.15
2017-09-24T09:41:00.220Z,5.12
2017-09-24T09:42:00.208Z,5.02
2017-09-24T09:43:00.195Z,5.15
2017-09-24T09:44:00.181Z,5.22
2017-09-24T09:45:00.168Z,5.03
2017-09-24T09:46:00.156Z,5.03
2017-09-24T09:47:00.142Z,4.84
2017-09-24T09:48:00.129Z,4.73
2017-09-24T09:49:00.115Z,4.75
2017-09-24T09:50:00.102Z,4.80
2017-09-24T09:51:00.089Z,4.77
2017-09-24T09:52:00.074Z,4.55
2017-09-24T09:53:00.062Z,4.44
2017-09-24T09:54:00.047Z,4.26
2017-09-24T09:55:00.035Z,4.09
2017-09-24T09:56:00.021Z,4.06
2017-09-24T09:57:00.007Z,4.06
2017-09-24T09:57:59.993Z,4.23
2017-09-24T09:58:59.979Z,4.41
2017-09-24T09:59:59.968Z,4.40
2017-09-24T10:00:59.950Z,4.37
2017-09-24T10:01:59.937Z,4.36
2017-09-24T10:02:59.923Z,4.47
2017-09-24T10:03:59.913Z,4.16
2017-09-24T10:04:59.894Z,3.98
2017-09-24T10:05:59.881Z,4.09
2017-09-24T10:06:59.867Z,3.96
2017-09-24T10:07:59.852Z,3.87
2017-09-24T10:08:59.838Z,3.96
2017-09-24T10:09:59.824Z,3.98
2017-09-24T10:10:59.809Z,3.68
2017-09-24T10:11:59.795Z,3.90
2017-09-24T10:12:59.780Z,3.87
2017-09-24T10:13:59.767Z,4.04
2017-09-24T10:14:59.753Z,4.24
2017-09-24T10:15:59.738Z,4.44
2017-09-24T10:16:59.724Z,4.69
2017-09-24T10:17:59.711Z,4.82
2017-09-24T10:18:59.697Z,5.09
2017-09-24T10:19:59.683Z,4.73
2017-09-24T10:20:59.674Z,4.52
2017-09-24T10:21:59.655Z,4.41
2017-09-24T10:22:59.642Z,3.87
2017-09-24T10:23:59.627Z,3.94
2017-09-24T10:24:59.614Z,3.96
2017-09-24T10:25:59.601Z,3.90
2017-09-24T10:26:59.587Z,3.94
2017-09-24T10:27:59.574Z,4.30
2017-09-24T10:28:59.561Z,4.50
2017-09-24T10:29:59.546Z,4.58
2017-09-24T10:30:59.534Z,4.85
2017-09-24T10:31:59.519Z,5.09
2017-09-24T10:32:59.507Z,5.27
2017-09-24T10:33:59.493Z,5.35
2017-09-24T10:34:59.481Z,5.43
2017-09-24T10:35:59.466Z,5.46
2017-09-24T10:36:59.453Z,5.74
2017-09-24T10:37:59.441Z,5.76
2017-09-24T10:38:59.429Z,5.65
2017-09-24T10:39:59.415Z,5.53
2017-09-24T10:40:59.402Z,5.49
2017-09-24T10:41:59.389Z,5.67
2017-09-24T10:42:59.378Z,5.48
2017-09-24T10:43:59.362Z,5.68
2017-09-24T10:44:59.350Z,5.63
2017-09-24T10:45:59.341Z,5.53
2017-09-24T10:46:59.323Z,5.33
2017-09-24T10:47:59.325Z,5.25
2017-09-24T10:48:59.296Z,5.13
2017-09-24T10:49:59.283Z,5.00
2017-09-24T10:50:59.274Z,4.85
2017-09-24T10:51:59.256Z,4.58
2017-09-24T10:52:59.243Z,4.47
2017-09-24T10:53:59.231Z,4.72
2017-09-24T10:54:59.218Z,4.86
2017-09-24T10:55:59.204Z,4.89
2017-09-24T10:56:59.192Z,4.42
2017-09-24T10:57:59.179Z,4.51
2017-09-24T10:58:59.167Z,4.44
2017-09-24T10:59:59.153Z,4.23
2017-09-24T11:00:59.140Z,4.29
2017-09-24T11:01:59.128Z,4.41
2017-09-24T11:02:59.115Z,4.60
2017-09-24T11:03:59.101Z,4.96
2017-09-24T11:04:59.089Z,4.97
2017-09-24T11:05:59.076Z,5.00
2017-09-24T11:06:59.064Z,5.09
2017-09-24T11:07:59.050Z,5.13
2017-09-24T11:08:59.038Z,5.25
2017-09-24T11:09:59.025Z,5.43
2017-09-24T11:10:59.012Z,5.49
2017-09-24T11:11:58.999Z,5.48
2017-09-24T11:12:58.986Z,5.10
2017-09-24T11:13:58.974Z,5.03
2017-09-24T11:14:58.962Z,5.10
2017-09-24T11:15:58.947Z,4.62
2017-09-24T11:16:58.935Z,4.23
2017-09-24T11:17:58.923Z,3.90
2017-09-24T11:18:58.911Z,3.93
2017-09-24T11:19:58.901Z,4.02
2017-09-24T11:20:58.884Z,4.12
2017-09-24T11:21:58.871Z,4.41
2017-09-24T11:22:58.859Z,4.55
2017-09-24T11:23:58.846Z,4.78
2017-09-24T11:24:58.832Z,4.97
2017-09-24T11:25:58.821Z,5.00
2017-09-24T11:26:58.808Z,5.12
2017-09-24T11:27:58.795Z,4.97
2017-09-24T11:28:58.781Z,5.04
2017-09-24T11:29:58.770Z,5.03
2017-09-24T11:30:58.755Z,5.00
2017-09-24T11:31:58.742Z,5.10
2017-09-24T11:32:58.730Z,4.99
2017-09-24T11:33:58.717Z,4.94
2017-09-24T11:34:58.705Z,4.52
2017-09-24T11:35:58.693Z,4.11
2017-09-24T11:36:58.678Z,3.91
2017-09-24T11:37:58.665Z,4.05
2017-09-24T11:38:58.652Z,3.94
2017-09-24T11:39:58.639Z,3.65
2017-09-24T11:40:58.627Z,3.31
2017-09-24T11:41:58.615Z,3.03
2017-09-24T11:42:58.603Z,2.77
2017-09-24T11:43:58.589Z,2.60
2017-09-24T11:44:58.575Z,2.48
2017-09-24T11:45:58.563Z,2.23
2017-09-24T11:46:58.555Z,2.20
2017-09-24T11:47:58.536Z,2.35
2017-09-24T11:48:58.523Z,2.66
2017-09-24T11:49:58.511Z,2.82
2017-09-24T11:50:58.498Z,2.81
2017-09-24T11:51:58.491Z,2.87
2017-09-24T11:52:58.470Z,2.89
2017-09-24T11:53:58.457Z,2.66
2017-09-24T11:54:58.444Z,2.71
2017-09-24T11:55:58.430Z,2.46
2017-09-24T11:56:58.424Z,2.53
2017-09-24T11:57:58.403Z,2.78
2017-09-24T11:58:58.389Z,2.63
2017-09-24T11:59:58.376Z,2.63
2017-09-24T12:00:58.361Z,2.75
2017-09-24T12:01:58.347Z,2.95
2017-09-24T12:02:58.333Z,3.10
2017-09-24T12:03:58.320Z,3.43
2017-09-24T12:04:58.305Z,3.48
2017-09-24T12:05:58.543Z,3.72
2017-09-24T12:06:58.279Z,4.11
2017-09-24T12:07:58.265Z,4.09
2017-09-24T12:08:58.251Z,4.05
2017-09-24T12:09:58.239Z,4.45
2017-09-24T12:10:58.225Z,5.02
2017-09-24T12:11:58.211Z,5.54
2017-09-24T12:12:58.199Z,6.04
2017-09-24T12:13:58.186Z,6.67
2017-09-24T12:14:58.175Z,7.25
2017-09-24T12:15:58.161Z,7.30
2017-09-24T12:16:58.148Z,7.24
2017-09-24T12:17:58.136Z,7.35
2017-09-24T12:18:58.124Z,7.97
2017-09-24T12:19:58.111Z,8.38
2017-09-24T12:20:58.100Z,8.61
2017-09-24T12:21:58.098Z,8.65
2017-09-24T12:22:58.077Z,8.68
2017-09-24T12:23:58.064Z,8.76
2017-09-24T12:24:58.053Z,8.74
2017-09-24T12:25:58.043Z,8.71
2017-09-24T12:26:58.031Z,8.66
2017-09-24T12:27:58.019Z,8.33
2017-09-24T12:28:58.008Z,8.07
2017-09-24T12:29:57.997Z,8.04
2017-09-24T12:30:57.985Z,8.05
2017-09-24T12:31:57.973Z,8.23
2017-09-24T12:32:57.963Z,8.22
2017-09-24T12:33:57.951Z,8.34
2017-09-24T12:34:57.940Z,8.26
2017-09-24T12:35:57.928Z,7.80
2017-09-24T12:36:57.918Z,6.92
2017-09-24T12:37:57.906Z,6.81
2017-09-24T12:38:57.895Z,6.62
2017-09-24T12:39:57.882Z,6.44
2017-09-24T12:40:57.871Z,6.31
2017-09-24T12:41:57.860Z,5.82
2017-09-24T12:42:57.847Z,5.49
2017-09-24T12:43:57.835Z,5.04
2017-09-24T12:44:57.822Z,4.77
2017-09-24T12:45:57.811Z,4.82
2017-09-24T12:46:57.829Z,5.03
2017-09-24T12:47:57.786Z,5.24
2017-09-24T12:48:57.773Z,5.54
2017-09-24T12:49:57.760Z,5.63
2017-09-24T12:50:57.747Z,5.79
2017-09-24T12:51:57.734Z,5.81
2017-09-24T12:52:57.721Z,5.83
2017-09-24T12:53:57.708Z,5.91
2017-09-24T12:54:57.700Z,5.96
2017-09-24T12:55:57.681Z,6.04
2017-09-24T12:56:57.669Z,6.36
2017-09-24T12:57:57.656Z,6.99
2017-09-24T12:58:57.647Z,7.39
2017-09-24T12:59:57.630Z,7.75
2017-09-24T13:00:57.619Z,8.80
2017-09-24T13:01:57.606Z,9.76
2017-09-24T13:02:57.597Z,10.08
2017-09-24T13:03:57.583Z,10.71
2017-09-24T13:04:57.573Z,11.32
2017-09-24T13:05:57.561Z,11.70
2017-09-24T13:06:57.551Z,11.90
2017-09-24T13:07:57.540Z,12.10
2017-09-24T13:08:57.530Z,12.10
2017-09-24T13:09:57.520Z,11.40
2017-09-24T13:10:57.511Z,11.09
2017-09-24T13:11:57.503Z,10.64
2017-09-24T13:12:57.500Z,10.32
2017-09-24T13:13:57.481Z,10.01
2017-09-24T13:14:57.470Z,9.08
2017-09-24T13:15:57.460Z,8.94
2017-09-24T13:16:57.450Z,8.86
2017-09-24T13:17:57.440Z,8.76